sensor_id;sensor_type;location;lat;lon;timestamp;temperature;humidity
40848;DHT22;26570;50.962;5.340;2022-10-13T00:02:25;13.20;99.90
40848;DHT22;26570;50.962;5.340;2022-10-13T00:05:10;13.10;99.90
40848;DHT22;26570;50.962;5.340;2022-10-13T00:07:56;13.10;99.90
40848;DHT22;26570;50.962;5.340;2022-10-13T00:10:41;13.20;99.90
40848;DHT22;26570;50.962;5.340;2022-10-13T00:13:27;13.10;99.90
40848;DHT22;26570;50.962;5.340;2022-10-13T00:16:14;13.20;99.90
40848;DHT22;26570;50.962;5.340;2022-10-13T00:19:00;13.20;99.90
40848;DHT22;26570;50.962;5.340;2022-10-13T00:21:45;13.30;99.90
40848;DHT22;26570;50.962;5.340;2022-10-13T00:24:30;13.30;99.90
40848;DHT22;26570;50.962;5.340;2022-10-13T00:27:15;13.30;99.90
40848;DHT22;26570;50.962;5.340;2022-10-13T00:30:00;13.20;99.90
40848;DHT22;26570;50.962;5.340;2022-10-13T00:32:45;13.20;99.90
40848;DHT22;26570;50.962;5.340;2022-10-13T00:35:31;13.30;99.90
40848;DHT22;26570;50.962;5.340;2022-10-13T00:38:18;13.30;99.90
40848;DHT22;26570;50.962;5.340;2022-10-13T00:41:04;13.40;99.90
40848;DHT22;26570;50.962;5.340;2022-10-13T00:46:43;13.30;99.90
40848;DHT22;26570;50.962;5.340;2022-10-13T00:49:28;13.30;99.90
40848;DHT22;26570;50.962;5.340;2022-10-13T00:52:15;13.30;99.90
40848;DHT22;26570;50.962;5.340;2022-10-13T00:55:02;13.20;99.90
40848;DHT22;26570;50.962;5.340;2022-10-13T00:57:49;13.30;99.90
40848;DHT22;26570;50.962;5.340;2022-10-13T01:00:39;13.40;99.90
40848;DHT22;26570;50.962;5.340;2022-10-13T01:03:25;13.40;99.90
40848;DHT22;26570;50.962;5.340;2022-10-13T01:06:11;13.30;99.90
40848;DHT22;26570;50.962;5.340;2022-10-13T01:08:56;13.20;99.90
40848;DHT22;26570;50.962;5.340;2022-10-13T01:15:08;13.30;99.90
40848;DHT22;26570;50.962;5.340;2022-10-13T01:21:18;13.30;99.90
40848;DHT22;26570;50.962;5.340;2022-10-13T01:30:24;13.30;99.90
40848;DHT22;26570;50.962;5.340;2022-10-13T01:33:36;13.10;99.90
40848;DHT22;26570;50.962;5.340;2022-10-13T01:39:34;13.20;99.90
40848;DHT22;26570;50.962;5.340;2022-10-13T01:42:26;13.10;99.90
40848;DHT22;26570;50.962;5.340;2022-10-13T01:45:17;13.20;99.90
40848;DHT22;26570;50.962;5.340;2022-10-13T01:48:05;13.30;99.90
40848;DHT22;26570;50.962;5.340;2022-10-13T01:50:52;13.30;99.90
40848;DHT22;26570;50.962;5.340;2022-10-13T01:53:44;13.20;99.90
40848;DHT22;26570;50.962;5.340;2022-10-13T01:56:30;13.20;99.90
40848;DHT22;26570;50.962;5.340;2022-10-13T01:59:15;13.20;99.90
40848;DHT22;26570;50.962;5.340;2022-10-13T02:02:30;13.30;99.90
40848;DHT22;26570;50.962;5.340;2022-10-13T02:08:31;13.30;99.90
40848;DHT22;26570;50.962;5.340;2022-10-13T02:11:21;13.20;99.90
40848;DHT22;26570;50.962;5.340;2022-10-13T02:14:23;13.20;99.90
40848;DHT22;26570;50.962;5.340;2022-10-13T02:17:10;13.30;99.90
40848;DHT22;26570;50.962;5.340;2022-10-13T02:19:55;13.30;99.90
40848;DHT22;26570;50.962;5.340;2022-10-13T02:22:43;13.40;99.90
40848;DHT22;26570;50.962;5.340;2022-10-13T02:25:30;13.40;99.90
40848;DHT22;26570;50.962;5.340;2022-10-13T02:28:16;13.40;99.90
40848;DHT22;26570;50.962;5.340;2022-10-13T02:31:01;13.30;99.90
40848;DHT22;26570;50.962;5.340;2022-10-13T02:33:46;13.40;99.90
40848;DHT22;26570;50.962;5.340;2022-10-13T02:36:31;13.40;99.90
40848;DHT22;26570;50.962;5.340;2022-10-13T02:39:17;13.50;99.90
40848;DHT22;26570;50.962;5.340;2022-10-13T02:42:02;13.40;99.90
40848;DHT22;26570;50.962;5.340;2022-10-13T02:44:49;13.40;99.90
40848;DHT22;26570;50.962;5.340;2022-10-13T02:47:34;13.40;99.90
40848;DHT22;26570;50.962;5.340;2022-10-13T02:50:19;13.30;99.90
40848;DHT22;26570;50.962;5.340;2022-10-13T02:53:04;13.30;99.90
40848;DHT22;26570;50.962;5.340;2022-10-13T02:55:49;13.30;99.90
40848;DHT22;26570;50.962;5.340;2022-10-13T02:58:34;13.20;99.90
40848;DHT22;26570;50.962;5.340;2022-10-13T03:01:19;13.20;99.90
40848;DHT22;26570;50.962;5.340;2022-10-13T03:04:04;13.30;99.90
40848;DHT22;26570;50.962;5.340;2022-10-13T03:06:49;13.30;99.90
40848;DHT22;26570;50.962;5.340;2022-10-13T03:09:34;13.30;99.90
40848;DHT22;26570;50.962;5.340;2022-10-13T03:12:19;13.20;99.90
40848;DHT22;26570;50.962;5.340;2022-10-13T03:15:05;13.20;99.90
40848;DHT22;26570;50.962;5.340;2022-10-13T03:17:50;13.30;99.90
40848;DHT22;26570;50.962;5.340;2022-10-13T03:20:35;13.30;99.90
40848;DHT22;26570;50.962;5.340;2022-10-13T03:23:20;13.20;99.90
40848;DHT22;26570;50.962;5.340;2022-10-13T03:26:05;13.20;99.90
40848;DHT22;26570;50.962;5.340;2022-10-13T03:28:51;13.20;99.90
40848;DHT22;26570;50.962;5.340;2022-10-13T03:31:36;13.30;99.90
40848;DHT22;26570;50.962;5.340;2022-10-13T03:34:21;13.20;99.90
40848;DHT22;26570;50.962;5.340;2022-10-13T03:37:06;13.20;99.90
40848;DHT22;26570;50.962;5.340;2022-10-13T03:39:51;13.10;99.90
40848;DHT22;26570;50.962;5.340;2022-10-13T03:42:36;13.20;99.90
40848;DHT22;26570;50.962;5.340;2022-10-13T03:45:22;13.20;99.90
40848;DHT22;26570;50.962;5.340;2022-10-13T03:48:07;13.20;99.90
40848;DHT22;26570;50.962;5.340;2022-10-13T03:50:52;13.20;99.90
40848;DHT22;26570;50.962;5.340;2022-10-13T03:53:37;13.10;99.90
40848;DHT22;26570;50.962;5.340;2022-10-13T03:56:24;13.30;99.90
40848;DHT22;26570;50.962;5.340;2022-10-13T03:59:11;13.20;99.90
40848;DHT22;26570;50.962;5.340;2022-10-13T04:01:57;13.10;99.90
40848;DHT22;26570;50.962;5.340;2022-10-13T04:04:41;13.20;99.90
40848;DHT22;26570;50.962;5.340;2022-10-13T04:07:27;13.10;99.90
40848;DHT22;26570;50.962;5.340;2022-10-13T04:10:12;13.00;99.90
40848;DHT22;26570;50.962;5.340;2022-10-13T04:12:57;13.00;99.90
40848;DHT22;26570;50.962;5.340;2022-10-13T04:15:42;13.00;99.90
40848;DHT22;26570;50.962;5.340;2022-10-13T04:18:27;13.00;99.90
40848;DHT22;26570;50.962;5.340;2022-10-13T04:21:13;13.00;99.90
40848;DHT22;26570;50.962;5.340;2022-10-13T04:23:59;13.00;99.90
40848;DHT22;26570;50.962;5.340;2022-10-13T04:26:44;13.00;99.90
40848;DHT22;26570;50.962;5.340;2022-10-13T04:29:30;13.00;99.90
40848;DHT22;26570;50.962;5.340;2022-10-13T04:32:15;13.00;99.90
40848;DHT22;26570;50.962;5.340;2022-10-13T04:35:00;12.90;99.90
40848;DHT22;26570;50.962;5.340;2022-10-13T04:37:45;12.90;99.90
40848;DHT22;26570;50.962;5.340;2022-10-13T04:40:30;12.90;99.90
40848;DHT22;26570;50.962;5.340;2022-10-13T04:43:15;13.00;99.90
40848;DHT22;26570;50.962;5.340;2022-10-13T04:46:06;12.90;99.90
40848;DHT22;26570;50.962;5.340;2022-10-13T04:48:52;12.80;99.90
40848;DHT22;26570;50.962;5.340;2022-10-13T04:51:38;12.80;99.90
40848;DHT22;26570;50.962;5.340;2022-10-13T04:54:23;12.90;99.90
40848;DHT22;26570;50.962;5.340;2022-10-13T04:57:08;12.80;99.90
40848;DHT22;26570;50.962;5.340;2022-10-13T04:59:53;12.80;99.90
40848;DHT22;26570;50.962;5.340;2022-10-13T05:02:38;12.90;99.90
40848;DHT22;26570;50.962;5.340;2022-10-13T05:05:23;12.90;99.90
40848;DHT22;26570;50.962;5.340;2022-10-13T05:08:09;12.80;99.90
40848;DHT22;26570;50.962;5.340;2022-10-13T05:11:00;12.80;99.90
40848;DHT22;26570;50.962;5.340;2022-10-13T05:13:46;12.80;99.90
40848;DHT22;26570;50.962;5.340;2022-10-13T05:16:31;12.70;99.90
40848;DHT22;26570;50.962;5.340;2022-10-13T05:19:16;12.70;99.90
40848;DHT22;26570;50.962;5.340;2022-10-13T05:22:01;12.80;99.90
40848;DHT22;26570;50.962;5.340;2022-10-13T05:24:46;12.70;99.90
40848;DHT22;26570;50.962;5.340;2022-10-13T05:27:31;12.70;99.90
40848;DHT22;26570;50.962;5.340;2022-10-13T05:30:16;12.70;99.90
40848;DHT22;26570;50.962;5.340;2022-10-13T05:33:01;12.70;99.90
40848;DHT22;26570;50.962;5.340;2022-10-13T05:35:47;12.70;99.90
40848;DHT22;26570;50.962;5.340;2022-10-13T05:38:32;12.80;99.90
40848;DHT22;26570;50.962;5.340;2022-10-13T05:41:18;12.70;99.90
40848;DHT22;26570;50.962;5.340;2022-10-13T05:44:07;12.70;99.90
40848;DHT22;26570;50.962;5.340;2022-10-13T05:46:52;12.70;99.90
40848;DHT22;26570;50.962;5.340;2022-10-13T05:49:37;12.70;99.90
40848;DHT22;26570;50.962;5.340;2022-10-13T05:52:26;12.80;99.90
40848;DHT22;26570;50.962;5.340;2022-10-13T05:55:15;12.70;99.90
40848;DHT22;26570;50.962;5.340;2022-10-13T05:58:01;12.90;99.90
40848;DHT22;26570;50.962;5.340;2022-10-13T06:00:46;12.90;99.90
40848;DHT22;26570;50.962;5.340;2022-10-13T06:03:32;12.90;99.90
40848;DHT22;26570;50.962;5.340;2022-10-13T06:06:18;12.90;99.90
40848;DHT22;26570;50.962;5.340;2022-10-13T06:09:03;12.90;99.90
40848;DHT22;26570;50.962;5.340;2022-10-13T06:11:48;12.90;99.90
40848;DHT22;26570;50.962;5.340;2022-10-13T06:14:33;12.90;99.90
40848;DHT22;26570;50.962;5.340;2022-10-13T06:17:19;13.00;99.90
40848;DHT22;26570;50.962;5.340;2022-10-13T06:20:04;12.90;99.90
40848;DHT22;26570;50.962;5.340;2022-10-13T06:22:50;12.90;99.90
40848;DHT22;26570;50.962;5.340;2022-10-13T06:25:36;13.00;99.90
40848;DHT22;26570;50.962;5.340;2022-10-13T06:28:22;13.00;99.90
40848;DHT22;26570;50.962;5.340;2022-10-13T06:31:07;13.00;99.90
40848;DHT22;26570;50.962;5.340;2022-10-13T06:33:53;13.30;99.90
40848;DHT22;26570;50.962;5.340;2022-10-13T06:36:38;13.20;99.90
40848;DHT22;26570;50.962;5.340;2022-10-13T06:39:23;13.20;99.90
40848;DHT22;26570;50.962;5.340;2022-10-13T06:42:10;13.20;99.90
40848;DHT22;26570;50.962;5.340;2022-10-13T06:44:55;13.30;99.90
40848;DHT22;26570;50.962;5.340;2022-10-13T06:47:40;13.30;99.90
40848;DHT22;26570;50.962;5.340;2022-10-13T06:50:25;13.40;99.90
40848;DHT22;26570;50.962;5.340;2022-10-13T06:53:10;13.50;99.90
40848;DHT22;26570;50.962;5.340;2022-10-13T06:55:59;13.60;99.90
40848;DHT22;26570;50.962;5.340;2022-10-13T06:58:45;13.80;99.90
40848;DHT22;26570;50.962;5.340;2022-10-13T07:01:29;13.80;99.90
40848;DHT22;26570;50.962;5.340;2022-10-13T07:04:14;13.70;99.90
40848;DHT22;26570;50.962;5.340;2022-10-13T07:06:59;13.90;99.90
40848;DHT22;26570;50.962;5.340;2022-10-13T07:09:44;13.90;99.90
40848;DHT22;26570;50.962;5.340;2022-10-13T07:12:29;14.00;99.90
40848;DHT22;26570;50.962;5.340;2022-10-13T07:15:14;14.10;99.90
40848;DHT22;26570;50.962;5.340;2022-10-13T07:18:00;14.20;99.90
40848;DHT22;26570;50.962;5.340;2022-10-13T07:20:45;14.10;99.90
40848;DHT22;26570;50.962;5.340;2022-10-13T07:23:30;14.10;99.90
40848;DHT22;26570;50.962;5.340;2022-10-13T07:26:15;14.00;99.90
40848;DHT22;26570;50.962;5.340;2022-10-13T07:29:00;14.20;99.90
40848;DHT22;26570;50.962;5.340;2022-10-13T07:31:46;14.20;99.90
40848;DHT22;26570;50.962;5.340;2022-10-13T07:34:31;14.30;99.90
40848;DHT22;26570;50.962;5.340;2022-10-13T07:37:16;14.40;99.90
40848;DHT22;26570;50.962;5.340;2022-10-13T07:40:05;14.50;99.90
40848;DHT22;26570;50.962;5.340;2022-10-13T07:42:51;14.60;99.90
40848;DHT22;26570;50.962;5.340;2022-10-13T07:45:36;14.60;99.90
40848;DHT22;26570;50.962;5.340;2022-10-13T07:48:21;14.80;99.90
40848;DHT22;26570;50.962;5.340;2022-10-13T07:51:08;14.90;99.90
40848;DHT22;26570;50.962;5.340;2022-10-13T07:53:54;15.00;99.90
40848;DHT22;26570;50.962;5.340;2022-10-13T07:56:39;15.10;99.90
40848;DHT22;26570;50.962;5.340;2022-10-13T07:59:24;15.00;99.90
40848;DHT22;26570;50.962;5.340;2022-10-13T08:02:10;15.10;99.90
40848;DHT22;26570;50.962;5.340;2022-10-13T08:05:04;15.10;99.90
40848;DHT22;26570;50.962;5.340;2022-10-13T08:07:49;15.10;99.90
40848;DHT22;26570;50.962;5.340;2022-10-13T08:10:34;15.20;99.90
40848;DHT22;26570;50.962;5.340;2022-10-13T08:13:19;15.20;99.90
40848;DHT22;26570;50.962;5.340;2022-10-13T08:16:04;15.10;99.90
40848;DHT22;26570;50.962;5.340;2022-10-13T08:18:49;15.30;99.90
40848;DHT22;26570;50.962;5.340;2022-10-13T08:21:33;15.30;99.90
40848;DHT22;26570;50.962;5.340;2022-10-13T08:24:18;15.20;99.90
40848;DHT22;26570;50.962;5.340;2022-10-13T08:27:03;15.10;99.90
40848;DHT22;26570;50.962;5.340;2022-10-13T08:29:48;15.30;99.90
40848;DHT22;26570;50.962;5.340;2022-10-13T08:32:32;15.30;99.90
40848;DHT22;26570;50.962;5.340;2022-10-13T08:35:17;15.20;99.90
40848;DHT22;26570;50.962;5.340;2022-10-13T08:38:02;15.40;99.90
40848;DHT22;26570;50.962;5.340;2022-10-13T08:40:48;15.40;99.90
40848;DHT22;26570;50.962;5.340;2022-10-13T08:43:33;15.50;99.90
40848;DHT22;26570;50.962;5.340;2022-10-13T08:46:46;15.40;99.90
40848;DHT22;26570;50.962;5.340;2022-10-13T08:49:32;15.50;99.90
40848;DHT22;26570;50.962;5.340;2022-10-13T08:52:20;15.50;99.90
40848;DHT22;26570;50.962;5.340;2022-10-13T08:55:15;15.70;99.90
40848;DHT22;26570;50.962;5.340;2022-10-13T08:58:08;15.90;99.90
40848;DHT22;26570;50.962;5.340;2022-10-13T09:01:10;15.90;99.90
40848;DHT22;26570;50.962;5.340;2022-10-13T09:04:08;15.80;99.90
40848;DHT22;26570;50.962;5.340;2022-10-13T09:10:01;16.00;99.90
40848;DHT22;26570;50.962;5.340;2022-10-13T09:12:46;16.00;99.90
40848;DHT22;26570;50.962;5.340;2022-10-13T09:15:42;16.00;99.90
40848;DHT22;26570;50.962;5.340;2022-10-13T09:18:30;15.80;99.90
40848;DHT22;26570;50.962;5.340;2022-10-13T09:21:22;15.70;99.90
40848;DHT22;26570;50.962;5.340;2022-10-13T09:24:13;15.80;99.90
40848;DHT22;26570;50.962;5.340;2022-10-13T09:27:13;15.80;99.90
40848;DHT22;26570;50.962;5.340;2022-10-13T09:38:43;15.70;99.90
40848;DHT22;26570;50.962;5.340;2022-10-13T09:41:29;15.80;99.90
40848;DHT22;26570;50.962;5.340;2022-10-13T09:44:17;15.70;99.90
40848;DHT22;26570;50.962;5.340;2022-10-13T09:47:03;15.70;99.90
40848;DHT22;26570;50.962;5.340;2022-10-13T09:52:49;15.80;99.90
40848;DHT22;26570;50.962;5.340;2022-10-13T09:55:35;15.80;99.90
40848;DHT22;26570;50.962;5.340;2022-10-13T09:58:30;15.90;99.90
40848;DHT22;26570;50.962;5.340;2022-10-13T10:01:22;15.80;99.90
40848;DHT22;26570;50.962;5.340;2022-10-13T10:04:23;15.80;99.90
40848;DHT22;26570;50.962;5.340;2022-10-13T10:07:20;15.80;99.90
40848;DHT22;26570;50.962;5.340;2022-10-13T10:10:15;15.60;99.90
40848;DHT22;26570;50.962;5.340;2022-10-13T10:13:04;15.50;99.90
40848;DHT22;26570;50.962;5.340;2022-10-13T10:15:56;15.50;99.90
40848;DHT22;26570;50.962;5.340;2022-10-13T10:18:46;15.60;99.90
40848;DHT22;26570;50.962;5.340;2022-10-13T10:30:52;15.50;99.90
40848;DHT22;26570;50.962;5.340;2022-10-13T10:40:20;15.80;99.90
40848;DHT22;26570;50.962;5.340;2022-10-13T10:46:01;16.40;99.90
40848;DHT22;26570;50.962;5.340;2022-10-13T10:48:47;16.60;99.90
40848;DHT22;26570;50.962;5.340;2022-10-13T10:51:35;16.60;99.90
40848;DHT22;26570;50.962;5.340;2022-10-13T11:00:18;17.00;99.90
40848;DHT22;26570;50.962;5.340;2022-10-13T11:03:29;16.90;99.90
40848;DHT22;26570;50.962;5.340;2022-10-13T11:08:59;16.80;99.90
40848;DHT22;26570;50.962;5.340;2022-10-13T11:11:44;16.70;99.90
40848;DHT22;26570;50.962;5.340;2022-10-13T11:14:29;16.80;99.90
40848;DHT22;26570;50.962;5.340;2022-10-13T11:17:19;16.90;99.90
40848;DHT22;26570;50.962;5.340;2022-10-13T11:25:48;17.10;99.90
40848;DHT22;26570;50.962;5.340;2022-10-13T11:31:28;17.40;99.90
40848;DHT22;26570;50.962;5.340;2022-10-13T11:34:30;17.30;99.90
40848;DHT22;26570;50.962;5.340;2022-10-13T11:37:34;17.40;99.90
40848;DHT22;26570;50.962;5.340;2022-10-13T11:44:02;17.00;99.90
40848;DHT22;26570;50.962;5.340;2022-10-13T11:53:16;17.20;99.90
40848;DHT22;26570;50.962;5.340;2022-10-13T11:56:01;17.30;99.90
40848;DHT22;26570;50.962;5.340;2022-10-13T11:58:46;17.50;99.90
40848;DHT22;26570;50.962;5.340;2022-10-13T12:01:31;17.30;99.90
40848;DHT22;26570;50.962;5.340;2022-10-13T12:04:21;17.40;99.90
40848;DHT22;26570;50.962;5.340;2022-10-13T12:07:09;17.40;99.90
40848;DHT22;26570;50.962;5.340;2022-10-13T12:09:56;17.50;99.90
40848;DHT22;26570;50.962;5.340;2022-10-13T12:12:48;17.40;99.90
40848;DHT22;26570;50.962;5.340;2022-10-13T12:18:23;17.60;99.90
40848;DHT22;26570;50.962;5.340;2022-10-13T12:21:20;17.70;99.90
40848;DHT22;26570;50.962;5.340;2022-10-13T12:24:07;17.70;99.90
40848;DHT22;26570;50.962;5.340;2022-10-13T12:26:54;17.80;99.90
40848;DHT22;26570;50.962;5.340;2022-10-13T12:29:39;18.00;99.90
40848;DHT22;26570;50.962;5.340;2022-10-13T12:32:30;18.20;99.90
40848;DHT22;26570;50.962;5.340;2022-10-13T12:38:17;18.30;99.90
40848;DHT22;26570;50.962;5.340;2022-10-13T12:41:03;18.40;99.90
40848;DHT22;26570;50.962;5.340;2022-10-13T12:43:49;18.50;99.90
40848;DHT22;26570;50.962;5.340;2022-10-13T12:46:46;18.50;99.90
40848;DHT22;26570;50.962;5.340;2022-10-13T12:49:33;18.50;99.90
40848;DHT22;26570;50.962;5.340;2022-10-13T12:52:23;18.40;99.90
40848;DHT22;26570;50.962;5.340;2022-10-13T12:55:15;18.20;99.90
40848;DHT22;26570;50.962;5.340;2022-10-13T12:58:00;18.20;99.90
40848;DHT22;26570;50.962;5.340;2022-10-13T13:01:00;18.20;99.90
40848;DHT22;26570;50.962;5.340;2022-10-13T13:03:53;18.00;99.90
40848;DHT22;26570;50.962;5.340;2022-10-13T13:06:39;18.20;99.90
40848;DHT22;26570;50.962;5.340;2022-10-13T13:09:35;18.00;99.90
40848;DHT22;26570;50.962;5.340;2022-10-13T13:12:26;17.80;99.90
40848;DHT22;26570;50.962;5.340;2022-10-13T13:15:20;17.50;99.90
40848;DHT22;26570;50.962;5.340;2022-10-13T13:18:36;17.30;99.90
40848;DHT22;26570;50.962;5.340;2022-10-13T13:21:23;16.70;99.90
40848;DHT22;26570;50.962;5.340;2022-10-13T13:24:09;16.60;99.90
40848;DHT22;26570;50.962;5.340;2022-10-13T13:26:55;16.30;99.90
40848;DHT22;26570;50.962;5.340;2022-10-13T13:29:44;16.20;99.90
40848;DHT22;26570;50.962;5.340;2022-10-13T13:38:18;16.20;99.90
40848;DHT22;26570;50.962;5.340;2022-10-13T13:41:03;16.20;99.90
40848;DHT22;26570;50.962;5.340;2022-10-13T13:43:59;16.20;99.90
40848;DHT22;26570;50.962;5.340;2022-10-13T13:46:45;16.20;99.90
40848;DHT22;26570;50.962;5.340;2022-10-13T13:49:30;16.30;99.90
40848;DHT22;26570;50.962;5.340;2022-10-13T13:52:16;16.50;99.90
40848;DHT22;26570;50.962;5.340;2022-10-13T13:55:02;16.70;99.90
40848;DHT22;26570;50.962;5.340;2022-10-13T13:57:47;16.70;99.90
40848;DHT22;26570;50.962;5.340;2022-10-13T14:00:33;16.70;99.90
40848;DHT22;26570;50.962;5.340;2022-10-13T14:03:18;16.70;99.90
40848;DHT22;26570;50.962;5.340;2022-10-13T14:06:03;16.80;99.90
40848;DHT22;26570;50.962;5.340;2022-10-13T14:08:49;16.80;99.90
40848;DHT22;26570;50.962;5.340;2022-10-13T14:11:34;16.80;99.90
40848;DHT22;26570;50.962;5.340;2022-10-13T14:14:20;16.80;99.90
40848;DHT22;26570;50.962;5.340;2022-10-13T14:17:05;16.90;99.90
40848;DHT22;26570;50.962;5.340;2022-10-13T14:19:51;16.80;99.90
40848;DHT22;26570;50.962;5.340;2022-10-13T14:22:37;16.80;99.90
40848;DHT22;26570;50.962;5.340;2022-10-13T14:25:22;16.90;99.90
40848;DHT22;26570;50.962;5.340;2022-10-13T14:28:08;17.00;99.90
40848;DHT22;26570;50.962;5.340;2022-10-13T14:30:53;16.90;99.90
40848;DHT22;26570;50.962;5.340;2022-10-13T14:33:39;16.80;99.90
40848;DHT22;26570;50.962;5.340;2022-10-13T14:36:24;16.90;99.90
40848;DHT22;26570;50.962;5.340;2022-10-13T14:39:09;16.80;99.90
40848;DHT22;26570;50.962;5.340;2022-10-13T14:41:55;16.60;99.90
40848;DHT22;26570;50.962;5.340;2022-10-13T14:44:40;16.60;99.90
40848;DHT22;26570;50.962;5.340;2022-10-13T14:47:25;16.50;99.90
40848;DHT22;26570;50.962;5.340;2022-10-13T14:50:11;16.50;99.90
40848;DHT22;26570;50.962;5.340;2022-10-13T14:52:57;16.70;99.90
40848;DHT22;26570;50.962;5.340;2022-10-13T14:55:43;16.60;99.90
40848;DHT22;26570;50.962;5.340;2022-10-13T14:58:28;16.60;99.90
40848;DHT22;26570;50.962;5.340;2022-10-13T15:01:14;16.60;99.90
40848;DHT22;26570;50.962;5.340;2022-10-13T15:04:02;16.60;99.90
40848;DHT22;26570;50.962;5.340;2022-10-13T15:06:48;16.60;99.90
40848;DHT22;26570;50.962;5.340;2022-10-13T15:09:33;16.60;99.90
40848;DHT22;26570;50.962;5.340;2022-10-13T15:12:18;16.60;99.90
40848;DHT22;26570;50.962;5.340;2022-10-13T15:15:03;16.60;99.90
40848;DHT22;26570;50.962;5.340;2022-10-13T15:17:49;16.50;99.90
40848;DHT22;26570;50.962;5.340;2022-10-13T15:20:34;16.60;99.90
40848;DHT22;26570;50.962;5.340;2022-10-13T15:23:19;16.70;99.90
40848;DHT22;26570;50.962;5.340;2022-10-13T15:26:05;16.60;99.90
40848;DHT22;26570;50.962;5.340;2022-10-13T15:28:51;16.70;99.90
40848;DHT22;26570;50.962;5.340;2022-10-13T15:31:36;16.60;99.90
40848;DHT22;26570;50.962;5.340;2022-10-13T15:34:21;16.50;99.90
40848;DHT22;26570;50.962;5.340;2022-10-13T15:37:06;16.50;99.90
40848;DHT22;26570;50.962;5.340;2022-10-13T15:39:51;16.40;99.90
40848;DHT22;26570;50.962;5.340;2022-10-13T15:42:36;16.50;99.90
40848;DHT22;26570;50.962;5.340;2022-10-13T15:45:21;16.40;99.90
40848;DHT22;26570;50.962;5.340;2022-10-13T15:48:07;16.50;99.90
40848;DHT22;26570;50.962;5.340;2022-10-13T15:50:53;16.30;99.90
40848;DHT22;26570;50.962;5.340;2022-10-13T15:53:38;16.40;99.90
40848;DHT22;26570;50.962;5.340;2022-10-13T15:56:23;16.40;99.90
40848;DHT22;26570;50.962;5.340;2022-10-13T15:59:08;16.30;99.90
40848;DHT22;26570;50.962;5.340;2022-10-13T16:01:54;16.30;99.90
40848;DHT22;26570;50.962;5.340;2022-10-13T16:04:39;16.30;99.90
40848;DHT22;26570;50.962;5.340;2022-10-13T16:07:24;16.20;99.90
40848;DHT22;26570;50.962;5.340;2022-10-13T16:10:11;16.20;99.90
40848;DHT22;26570;50.962;5.340;2022-10-13T16:12:57;16.10;99.90
40848;DHT22;26570;50.962;5.340;2022-10-13T16:15:42;16.00;99.90
40848;DHT22;26570;50.962;5.340;2022-10-13T16:18:32;16.10;99.90
40848;DHT22;26570;50.962;5.340;2022-10-13T16:21:21;16.10;99.90
40848;DHT22;26570;50.962;5.340;2022-10-13T16:24:06;16.00;99.90
40848;DHT22;26570;50.962;5.340;2022-10-13T16:26:52;15.90;99.90
40848;DHT22;26570;50.962;5.340;2022-10-13T16:29:37;15.90;99.90
40848;DHT22;26570;50.962;5.340;2022-10-13T16:32:22;15.90;99.90
40848;DHT22;26570;50.962;5.340;2022-10-13T16:35:07;15.90;99.90
40848;DHT22;26570;50.962;5.340;2022-10-13T16:37:52;15.90;99.90
40848;DHT22;26570;50.962;5.340;2022-10-13T16:40:38;15.80;99.90
40848;DHT22;26570;50.962;5.340;2022-10-13T16:43:24;15.70;99.90
40848;DHT22;26570;50.962;5.340;2022-10-13T16:46:11;15.70;99.90
40848;DHT22;26570;50.962;5.340;2022-10-13T16:49:00;15.50;99.90
40848;DHT22;26570;50.962;5.340;2022-10-13T16:51:45;15.30;99.90
40848;DHT22;26570;50.962;5.340;2022-10-13T16:54:31;15.40;99.90
40848;DHT22;26570;50.962;5.340;2022-10-13T16:57:16;15.30;99.90
40848;DHT22;26570;50.962;5.340;2022-10-13T17:00:02;15.30;99.90
40848;DHT22;26570;50.962;5.340;2022-10-13T17:02:47;15.30;99.90
40848;DHT22;26570;50.962;5.340;2022-10-13T17:05:33;15.40;99.90
40848;DHT22;26570;50.962;5.340;2022-10-13T17:08:18;15.10;99.90
40848;DHT22;26570;50.962;5.340;2022-10-13T17:11:04;15.20;99.90
40848;DHT22;26570;50.962;5.340;2022-10-13T17:13:50;15.10;99.90
40848;DHT22;26570;50.962;5.340;2022-10-13T17:16:36;15.10;99.90
40848;DHT22;26570;50.962;5.340;2022-10-13T17:19:21;15.10;99.90
40848;DHT22;26570;50.962;5.340;2022-10-13T17:22:06;15.20;99.90
40848;DHT22;26570;50.962;5.340;2022-10-13T17:24:52;15.30;99.90
40848;DHT22;26570;50.962;5.340;2022-10-13T17:27:37;15.20;99.90
40848;DHT22;26570;50.962;5.340;2022-10-13T17:30:23;15.30;99.90
40848;DHT22;26570;50.962;5.340;2022-10-13T17:33:08;15.30;99.90
40848;DHT22;26570;50.962;5.340;2022-10-13T17:36:00;15.40;99.90
40848;DHT22;26570;50.962;5.340;2022-10-13T17:38:46;15.40;99.90
40848;DHT22;26570;50.962;5.340;2022-10-13T17:41:32;15.10;99.90
40848;DHT22;26570;50.962;5.340;2022-10-13T17:44:18;15.20;99.90
40848;DHT22;26570;50.962;5.340;2022-10-13T17:47:04;15.00;99.90
40848;DHT22;26570;50.962;5.340;2022-10-13T17:49:50;15.00;99.90
40848;DHT22;26570;50.962;5.340;2022-10-13T17:52:36;15.20;99.90
40848;DHT22;26570;50.962;5.340;2022-10-13T17:55:22;15.20;99.90
40848;DHT22;26570;50.962;5.340;2022-10-13T17:58:06;15.10;99.90
40848;DHT22;26570;50.962;5.340;2022-10-13T18:00:52;15.00;99.90
40848;DHT22;26570;50.962;5.340;2022-10-13T18:03:41;15.10;99.90
40848;DHT22;26570;50.962;5.340;2022-10-13T18:06:30;15.10;99.90
40848;DHT22;26570;50.962;5.340;2022-10-13T18:09:18;15.10;99.90
40848;DHT22;26570;50.962;5.340;2022-10-13T18:12:04;15.10;99.90
40848;DHT22;26570;50.962;5.340;2022-10-13T18:14:48;15.10;99.90
40848;DHT22;26570;50.962;5.340;2022-10-13T18:17:33;15.10;99.90
40848;DHT22;26570;50.962;5.340;2022-10-13T18:20:19;15.10;99.90
40848;DHT22;26570;50.962;5.340;2022-10-13T18:23:05;15.20;99.90
40848;DHT22;26570;50.962;5.340;2022-10-13T18:25:50;15.00;99.90
40848;DHT22;26570;50.962;5.340;2022-10-13T18:28:36;15.10;99.90
40848;DHT22;26570;50.962;5.340;2022-10-13T18:31:26;15.00;99.90
40848;DHT22;26570;50.962;5.340;2022-10-13T18:34:13;15.00;99.90
40848;DHT22;26570;50.962;5.340;2022-10-13T18:36:58;15.20;99.90
40848;DHT22;26570;50.962;5.340;2022-10-13T18:39:44;15.10;99.90
40848;DHT22;26570;50.962;5.340;2022-10-13T18:42:31;15.10;99.90
40848;DHT22;26570;50.962;5.340;2022-10-13T18:45:16;15.20;99.90
40848;DHT22;26570;50.962;5.340;2022-10-13T18:48:01;15.20;99.90
40848;DHT22;26570;50.962;5.340;2022-10-13T18:50:46;15.00;99.90
40848;DHT22;26570;50.962;5.340;2022-10-13T18:53:31;15.10;99.90
40848;DHT22;26570;50.962;5.340;2022-10-13T18:56:20;15.00;99.90
40848;DHT22;26570;50.962;5.340;2022-10-13T18:59:06;15.00;99.90
40848;DHT22;26570;50.962;5.340;2022-10-13T19:01:52;15.00;99.90
40848;DHT22;26570;50.962;5.340;2022-10-13T19:04:37;15.00;99.90
40848;DHT22;26570;50.962;5.340;2022-10-13T19:07:22;15.00;99.90
40848;DHT22;26570;50.962;5.340;2022-10-13T19:10:07;15.00;99.90